createdAt,value
2017-08-28T00:00:23.789Z,84.70
2017-08-28T00:02:50.089Z,84.80
2017-08-28T00:05:16.399Z,84.10
2017-08-28T00:07:42.688Z,83.70
2017-08-28T00:10:08.979Z,83.30
2017-08-28T00:12:35.279Z,83.10
2017-08-28T00:15:01.563Z,82.70
2017-08-28T00:17:27.812Z,82.20
2017-08-28T00:19:54.114Z,82.10
2017-08-28T00:22:20.419Z,82.20
2017-08-28T00:24:46.704Z,82.20
2017-08-28T00:27:13.002Z,82.30
2017-08-28T00:29:39.262Z,82.30
2017-08-28T00:32:05.546Z,82.30
2017-08-28T00:34:31.820Z,82.50
2017-08-28T00:36:58.126Z,82.90
2017-08-28T00:39:24.388Z,82.70
2017-08-28T00:41:50.730Z,82.60
2017-08-28T00:44:17.022Z,82.20
2017-08-28T00:46:43.337Z,82.20
2017-08-28T00:49:10.116Z,82.30
2017-08-28T00:51:36.416Z,82.50
2017-08-28T00:54:02.724Z,82.70
2017-08-28T00:56:29.042Z,82.60
2017-08-28T00:58:55.371Z,82.80
2017-08-28T01:01:21.681Z,82.90
2017-08-28T01:03:48.029Z,82.30
2017-08-28T01:06:14.300Z,82.50
2017-08-28T01:08:40.597Z,82.40
2017-08-28T01:11:06.906Z,82.70
2017-08-28T01:13:33.188Z,82.80
2017-08-28T01:15:59.489Z,82.70
2017-08-28T01:18:25.738Z,82.90
2017-08-28T01:20:52.051Z,83.10
2017-08-28T01:23:18.348Z,82.90
2017-08-28T01:25:44.639Z,82.80
2017-08-28T01:28:10.929Z,82.60
2017-08-28T01:30:37.240Z,82.40
2017-08-28T01:33:03.501Z,82.30
2017-08-28T01:35:29.783Z,82.40
2017-08-28T01:37:56.059Z,82.50
2017-08-28T01:40:22.338Z,82.70
2017-08-28T01:42:48.597Z,82.50
2017-08-28T01:45:14.874Z,82.50
2017-08-28T01:47:41.187Z,82.30
2017-08-28T01:50:07.479Z,82.50
2017-08-28T01:52:33.760Z,82.40
2017-08-28T01:55:00.046Z,82.30
2017-08-28T01:57:26.330Z,82.50
2017-08-28T01:59:52.601Z,83.30
2017-08-28T02:02:18.873Z,83.40
2017-08-28T02:04:45.168Z,84.00
2017-08-28T02:07:11.445Z,83.90
2017-08-28T02:09:37.731Z,84.00
2017-08-28T02:12:03.984Z,84.70
2017-08-28T02:14:30.273Z,84.70
2017-08-28T02:16:56.520Z,84.70
2017-08-28T02:19:22.790Z,84.60
2017-08-28T02:21:49.032Z,83.80
2017-08-28T02:24:15.353Z,83.40
2017-08-28T02:26:41.632Z,83.30
2017-08-28T02:29:07.896Z,83.30
2017-08-28T02:31:34.196Z,83.20
2017-08-28T02:34:00.478Z,83.00
2017-08-28T02:36:26.766Z,82.90
2017-08-28T02:38:53.024Z,83.10
2017-08-28T02:41:19.320Z,83.20
2017-08-28T02:43:45.618Z,83.30
2017-08-28T02:46:11.921Z,83.50
2017-08-28T02:48:38.193Z,83.40
2017-08-28T02:51:04.453Z,83.30
2017-08-28T02:53:30.773Z,83.10
2017-08-28T02:55:57.037Z,82.90
2017-08-28T02:58:23.325Z,82.70
2017-08-28T03:00:49.603Z,82.50
2017-08-28T03:03:15.934Z,82.70
2017-08-28T03:05:42.223Z,82.70
2017-08-28T03:08:08.529Z,82.50
2017-08-28T03:10:34.806Z,82.50
2017-08-28T03:13:01.087Z,82.40
2017-08-28T03:15:27.378Z,82.50
2017-08-28T03:17:53.647Z,82.60
2017-08-28T03:20:19.958Z,82.50
2017-08-28T03:22:46.209Z,82.40
2017-08-28T03:25:12.482Z,82.50
2017-08-28T03:27:38.749Z,82.50
2017-08-28T03:30:06.083Z,82.80
2017-08-28T03:32:32.403Z,82.80
2017-08-28T03:34:58.670Z,82.70
2017-08-28T03:37:25.000Z,82.80
2017-08-28T03:39:51.320Z,82.60
2017-08-28T03:42:17.655Z,82.50
2017-08-28T03:44:43.927Z,82.50
2017-08-28T03:47:10.265Z,82.30
2017-08-28T03:49:36.553Z,82.30
2017-08-28T03:52:02.885Z,82.40
2017-08-28T03:54:29.199Z,82.20
2017-08-28T03:56:55.507Z,82.20
2017-08-28T03:59:21.826Z,82.10
2017-08-28T04:01:48.132Z,82.10
2017-08-28T04:04:14.478Z,82.00
2017-08-28T04:06:40.786Z,82.10
2017-08-28T04:09:07.126Z,82.20
2017-08-28T04:11:33.424Z,82.40
2017-08-28T04:13:59.735Z,82.40
2017-08-28T04:16:26.018Z,82.60
2017-08-28T04:18:52.303Z,82.80
2017-08-28T04:21:18.609Z,82.90
2017-08-28T04:23:44.882Z,83.00
2017-08-28T04:26:11.182Z,82.90
2017-08-28T04:28:37.511Z,82.80
2017-08-28T04:31:03.843Z,82.60
2017-08-28T04:33:30.885Z,82.50
2017-08-28T04:35:57.517Z,82.90
2017-08-28T04:38:23.809Z,82.90
2017-08-28T04:40:50.108Z,83.40
2017-08-28T04:43:16.387Z,82.80
2017-08-28T04:45:42.643Z,82.60
2017-08-28T04:48:08.945Z,82.90
2017-08-28T04:50:35.192Z,83.40
2017-08-28T04:53:01.475Z,83.00
2017-08-28T04:55:27.748Z,82.60
2017-08-28T04:57:54.009Z,82.60
2017-08-28T05:00:20.290Z,82.60
2017-08-28T05:02:46.561Z,82.60
2017-08-28T05:05:12.873Z,82.60
2017-08-28T05:07:39.183Z,82.40
2017-08-28T05:10:05.483Z,82.70
2017-08-28T05:12:31.770Z,83.20
2017-08-28T05:14:58.038Z,83.20
2017-08-28T05:17:24.309Z,83.00
2017-08-28T05:19:50.569Z,82.90
2017-08-28T05:22:16.853Z,82.90
2017-08-28T05:24:43.117Z,82.90
2017-08-28T05:27:09.404Z,83.40
2017-08-28T05:29:35.657Z,83.30
2017-08-28T05:32:01.932Z,82.90
2017-08-28T05:34:28.201Z,83.80
2017-08-28T05:36:54.515Z,83.90
2017-08-28T05:39:20.794Z,83.80
2017-08-28T05:41:47.421Z,84.10
2017-08-28T05:44:13.686Z,83.80
2017-08-28T05:46:39.967Z,83.70
2017-08-28T05:49:06.259Z,83.50
2017-08-28T05:51:32.546Z,83.30
2017-08-28T05:53:58.836Z,83.30
2017-08-28T05:56:25.104Z,83.20
2017-08-28T05:58:51.393Z,83.00
2017-08-28T06:01:17.660Z,83.10
2017-08-28T06:03:55.237Z,82.80
2017-08-28T06:06:27.249Z,82.90
2017-08-28T06:08:54.498Z,83.00
2017-08-28T06:11:20.811Z,83.00
2017-08-28T06:13:47.763Z,82.90
2017-08-28T06:16:14.063Z,82.50
2017-08-28T06:18:40.914Z,82.60
2017-08-28T06:21:08.216Z,82.40
2017-08-28T06:23:38.477Z,82.50
2017-08-28T06:26:05.476Z,82.30
2017-08-28T06:28:33.123Z,81.90
2017-08-28T06:31:03.319Z,81.90
2017-08-28T06:33:29.571Z,81.00
2017-08-28T06:36:00.327Z,80.80
2017-08-28T06:38:26.621Z,81.00
2017-08-28T06:40:52.873Z,81.20
2017-08-28T06:43:20.425Z,81.00
2017-08-28T06:45:46.761Z,80.70
2017-08-28T06:48:13.075Z,81.40
2017-08-28T06:50:39.966Z,81.40
2017-08-28T06:53:06.838Z,80.80
2017-08-28T06:55:33.092Z,80.70
2017-08-28T06:57:59.408Z,80.80
2017-08-28T07:00:26.910Z,80.40
2017-08-28T07:02:56.097Z,80.30
2017-08-28T07:05:23.691Z,80.50
2017-08-28T07:07:51.911Z,79.80
2017-08-28T07:10:19.737Z,79.50
2017-08-28T07:12:46.026Z,79.70
2017-08-28T07:15:12.325Z,80.00
2017-08-28T07:17:38.604Z,79.70
2017-08-28T07:20:05.872Z,79.50
2017-08-28T07:22:32.825Z,79.00
2017-08-28T07:24:59.113Z,79.40
2017-08-28T07:27:25.409Z,78.80
2017-08-28T07:29:52.460Z,78.40
2017-08-28T07:32:19.686Z,78.30
2017-08-28T07:34:46.924Z,77.60
2017-08-28T07:37:13.183Z,77.00
2017-08-28T07:39:39.438Z,77.50
2017-08-28T07:42:06.530Z,77.10
2017-08-28T07:44:38.827Z,77.40
2017-08-28T07:47:06.067Z,76.80
2017-08-28T07:49:33.281Z,76.90
2017-08-28T07:51:59.567Z,77.10
2017-08-28T07:54:25.860Z,77.50
2017-08-28T07:56:53.435Z,77.60
2017-08-28T08:01:53.308Z,76.50
2017-08-28T08:04:21.211Z,75.40
2017-08-28T08:06:47.478Z,75.40
2017-08-28T08:09:13.778Z,76.30
2017-08-28T08:11:40.066Z,76.60
2017-08-28T08:14:06.901Z,73.90
2017-08-28T08:16:34.236Z,75.20
2017-08-28T08:19:01.242Z,75.60
2017-08-28T08:21:28.569Z,75.40
2017-08-28T08:23:55.801Z,73.40
2017-08-28T08:26:22.098Z,74.70
2017-08-28T08:28:50.614Z,75.90
2017-08-28T08:31:16.944Z,75.20
2017-08-28T08:33:50.195Z,73.50
2017-08-28T08:36:16.854Z,73.10
2017-08-28T08:38:43.657Z,75.20
2017-08-28T08:41:10.495Z,74.00
2017-08-28T08:43:37.817Z,72.80
2017-08-28T08:46:04.121Z,74.10
2017-08-28T08:48:30.420Z,73.80
2017-08-28T08:50:56.714Z,71.90
2017-08-28T08:53:23.032Z,72.20
2017-08-28T08:55:49.307Z,73.10
2017-08-28T08:58:15.630Z,71.40
2017-08-28T09:00:42.884Z,70.70
2017-08-28T09:03:10.295Z,71.90
2017-08-28T09:05:36.622Z,72.20
2017-08-28T09:08:02.915Z,70.20
2017-08-28T09:10:29.214Z,70.80
2017-08-28T09:12:55.535Z,70.60
2017-08-28T09:15:22.646Z,70.30
2017-08-28T09:17:48.953Z,69.00
2017-08-28T09:20:15.258Z,67.60
2017-08-28T09:22:42.228Z,68.30
2017-08-28T09:25:09.169Z,69.20
2017-08-28T09:27:35.465Z,70.40
2017-08-28T09:30:01.734Z,69.50
2017-08-28T09:32:28.033Z,69.50
2017-08-28T09:34:54.337Z,69.70
2017-08-28T09:37:20.635Z,67.90
2017-08-28T09:39:48.212Z,68.70
2017-08-28T09:42:14.527Z,69.70
2017-08-28T09:44:40.792Z,67.20
2017-08-28T09:47:07.105Z,65.00
2017-08-28T09:49:33.375Z,67.20
2017-08-28T09:52:03.578Z,69.40
2017-08-28T09:54:29.914Z,68.30
2017-08-28T09:56:56.232Z,66.30
2017-08-28T09:59:22.542Z,68.40
2017-08-28T10:01:48.809Z,67.30
2017-08-28T10:04:15.133Z,65.50
2017-08-28T10:06:41.404Z,63.00
2017-08-28T10:09:07.715Z,65.30
2017-08-28T10:11:33.969Z,64.60
2017-08-28T10:14:00.276Z,63.80
2017-08-28T10:16:26.562Z,64.00
2017-08-28T10:18:52.846Z,63.20
2017-08-28T10:21:19.165Z,61.50
2017-08-28T10:23:45.446Z,60.80
2017-08-28T10:26:11.753Z,61.50
2017-08-28T10:28:38.030Z,61.00
2017-08-28T10:31:04.600Z,59.50
2017-08-28T10:33:30.864Z,59.50
2017-08-28T10:35:57.914Z,56.90
2017-08-28T10:38:24.201Z,59.30
2017-08-28T10:40:50.468Z,58.90
2017-08-28T10:43:16.760Z,57.60
2017-08-28T10:45:43.055Z,53.80
2017-08-28T10:48:09.339Z,54.80
2017-08-28T10:50:35.615Z,53.80
2017-08-28T10:53:08.359Z,53.00
2017-08-28T10:55:34.629Z,47.20
2017-08-28T10:58:00.907Z,48.90
2017-08-28T11:00:28.054Z,49.00
2017-08-28T11:02:55.184Z,46.00
2017-08-28T11:05:21.476Z,41.00
2017-08-28T11:07:47.745Z,42.30
2017-08-28T11:10:14.077Z,45.60
2017-08-28T11:12:40.336Z,45.60
2017-08-28T11:15:06.627Z,44.80
2017-08-28T11:17:32.914Z,41.20
2017-08-28T11:19:59.170Z,42.80
2017-08-28T11:22:25.467Z,47.80
2017-08-28T11:24:52.527Z,48.00
2017-08-28T11:27:18.817Z,46.40
2017-08-28T11:29:45.113Z,46.00
2017-08-28T11:32:11.381Z,41.80
2017-08-28T11:34:37.646Z,38.10
2017-08-28T11:37:03.949Z,36.70
2017-08-28T11:39:30.225Z,35.70
2017-08-28T11:41:56.481Z,34.50
2017-08-28T11:44:22.752Z,32.20
2017-08-28T11:46:49.022Z,32.30
2017-08-28T11:49:15.347Z,29.90
2017-08-28T11:51:42.609Z,29.80
2017-08-28T11:54:08.897Z,28.30
2017-08-28T11:56:35.167Z,29.20
2017-08-28T11:59:01.461Z,31.80
2017-08-28T12:01:27.783Z,35.00
2017-08-28T12:03:54.109Z,36.90
2017-08-28T12:06:20.396Z,38.30
2017-08-28T12:08:46.674Z,38.10
2017-08-28T12:11:12.990Z,42.00
2017-08-28T12:13:39.283Z,35.40
2017-08-28T12:16:05.576Z,31.70
2017-08-28T12:18:31.859Z,28.80
2017-08-28T12:20:58.157Z,26.50
2017-08-28T12:23:24.463Z,24.80
2017-08-28T12:25:50.766Z,22.10
2017-08-28T12:28:17.087Z,22.10
2017-08-28T12:30:43.360Z,21.00
2017-08-28T12:33:09.698Z,19.80
2017-08-28T12:35:36.008Z,18.90
2017-08-28T12:38:02.723Z,20.90
2017-08-28T12:40:29.010Z,19.80
2017-08-28T12:42:55.286Z,19.70
2017-08-28T12:45:21.580Z,19.90
2017-08-28T12:47:47.850Z,19.20
2017-08-28T12:50:14.159Z,17.40
2017-08-28T12:52:40.430Z,18.30
2017-08-28T12:55:06.714Z,17.80
2017-08-28T12:57:32.985Z,17.70
2017-08-28T12:59:59.307Z,16.80
2017-08-28T13:02:25.576Z,17.50
2017-08-28T13:04:52.160Z,17.30
2017-08-28T13:07:18.443Z,17.30
2017-08-28T13:09:44.742Z,16.90
2017-08-28T13:12:11.058Z,17.10
2017-08-28T13:14:37.358Z,16.80
2017-08-28T13:17:03.658Z,16.60
2017-08-28T13:19:30.010Z,16.30
2017-08-28T13:21:56.318Z,16.40
2017-08-28T13:24:22.599Z,15.50
2017-08-28T13:26:48.942Z,15.90
2017-08-28T13:29:15.214Z,16.60
2017-08-28T13:31:41.509Z,17.40
2017-08-28T13:34:07.785Z,17.70
2017-08-28T13:36:34.093Z,16.90
2017-08-28T13:39:00.931Z,17.10
2017-08-28T13:41:27.244Z,16.60
2017-08-28T13:43:53.527Z,16.60
2017-08-28T13:46:19.802Z,16.10
2017-08-28T13:48:46.090Z,17.60
2017-08-28T13:51:12.395Z,16.40
2017-08-28T13:53:38.686Z,17.30
2017-08-28T13:56:04.973Z,17.30
2017-08-28T13:58:31.255Z,16.80
2017-08-28T14:00:57.529Z,16.60
2017-08-28T14:03:23.792Z,17.00
2017-08-28T14:05:50.157Z,16.90
2017-08-28T14:08:16.461Z,17.10
2017-08-28T14:10:42.779Z,17.00
2017-08-28T14:13:09.050Z,17.00
2017-08-28T14:15:35.349Z,17.00
2017-08-28T14:18:01.657Z,17.40
2017-08-28T14:20:27.943Z,17.70
2017-08-28T14:22:54.223Z,17.10
2017-08-28T14:25:20.558Z,17.70
2017-08-28T14:27:46.856Z,17.80
2017-08-28T14:30:13.123Z,17.20
2017-08-28T14:32:39.417Z,17.40
2017-08-28T14:35:05.687Z,17.70
2017-08-28T14:37:32.393Z,18.10
2017-08-28T14:39:58.667Z,17.40
2017-08-28T14:42:24.936Z,17.90
2017-08-28T14:44:51.222Z,17.90
2017-08-28T14:47:17.506Z,17.60
2017-08-28T14:49:44.140Z,18.00
2017-08-28T14:52:10.418Z,17.80
2017-08-28T14:54:36.704Z,18.50
2017-08-28T14:57:02.999Z,18.20
2017-08-28T14:59:29.428Z,17.40
2017-08-28T15:01:55.734Z,17.60
2017-08-28T15:04:22.025Z,18.90
2017-08-28T15:06:48.310Z,19.10
2017-08-28T15:09:14.582Z,19.30
2017-08-28T15:11:40.877Z,18.90
2017-08-28T15:14:07.204Z,19.20
2017-08-28T15:16:33.519Z,20.00
2017-08-28T15:18:59.835Z,19.90
2017-08-28T15:21:26.100Z,20.20
2017-08-28T15:23:52.373Z,19.50
2017-08-28T15:26:18.654Z,19.90
2017-08-28T15:28:44.946Z,20.20
2017-08-28T15:31:11.220Z,20.70
2017-08-28T15:33:37.884Z,20.50
2017-08-28T15:36:04.180Z,20.40
2017-08-28T15:38:30.452Z,20.70
2017-08-28T15:40:56.750Z,20.30
2017-08-28T15:43:23.017Z,21.40
2017-08-28T15:45:49.315Z,21.90
2017-08-28T15:48:15.592Z,22.10
2017-08-28T15:50:42.306Z,22.60
2017-08-28T15:53:08.566Z,22.50
2017-08-28T15:55:34.855Z,24.10
2017-08-28T15:58:01.158Z,25.70
2017-08-28T16:00:27.446Z,28.00
2017-08-28T16:02:53.733Z,30.40
2017-08-28T16:05:20.028Z,32.20
2017-08-28T16:07:46.292Z,32.40
2017-08-28T16:10:12.585Z,36.20
2017-08-28T16:12:38.877Z,37.80
2017-08-28T16:15:05.154Z,39.90
2017-08-28T16:17:31.449Z,40.30
2017-08-28T16:19:57.717Z,40.80
2017-08-28T16:22:24.031Z,41.00
2017-08-28T16:24:50.327Z,42.20
2017-08-28T16:27:16.943Z,42.50
2017-08-28T16:29:43.214Z,43.50
2017-08-28T16:32:09.570Z,45.50
2017-08-28T16:34:35.857Z,46.50
2017-08-28T16:37:02.145Z,46.70
2017-08-28T16:39:28.482Z,48.30
2017-08-28T16:41:54.752Z,48.60
2017-08-28T16:44:21.049Z,48.60
2017-08-28T16:46:47.332Z,49.30
2017-08-28T16:49:13.609Z,49.70
2017-08-28T16:51:39.911Z,49.80
2017-08-28T16:54:06.185Z,50.70
2017-08-28T16:56:32.470Z,50.50
2017-08-28T16:58:59.152Z,51.30
2017-08-28T17:01:25.404Z,52.40
2017-08-28T17:03:52.000Z,52.30
2017-08-28T17:06:18.657Z,53.10
2017-08-28T17:08:44.939Z,53.10
2017-08-28T17:11:11.225Z,54.10
2017-08-28T17:13:37.557Z,53.40
2017-08-28T17:16:03.842Z,54.20
2017-08-28T17:18:31.097Z,54.50
2017-08-28T17:20:58.011Z,55.20
2017-08-28T17:23:24.314Z,55.10
2017-08-28T17:25:50.609Z,55.70
2017-08-28T17:28:16.913Z,56.00
2017-08-28T17:30:43.226Z,56.30
2017-08-28T17:33:09.534Z,56.20
2017-08-28T17:35:35.792Z,56.80
2017-08-28T17:38:02.112Z,57.10
2017-08-28T17:40:28.424Z,57.10
2017-08-28T17:42:54.731Z,57.80
2017-08-28T17:45:21.021Z,58.10
2017-08-28T17:47:47.305Z,58.70
2017-08-28T17:50:13.616Z,58.70
2017-08-28T17:52:39.912Z,58.90
2017-08-28T17:55:06.204Z,59.30
2017-08-28T17:57:32.529Z,59.90
2017-08-28T17:59:58.832Z,60.50
2017-08-28T18:02:25.133Z,60.60
2017-08-28T18:04:51.445Z,61.20
2017-08-28T18:07:17.757Z,61.20
2017-08-28T18:09:44.090Z,61.80
2017-08-28T18:12:10.404Z,62.40
2017-08-28T18:14:36.704Z,62.60
2017-08-28T18:17:03.024Z,63.30
2017-08-28T18:19:29.292Z,63.70
2017-08-28T18:21:55.622Z,64.30
2017-08-28T18:24:21.896Z,64.50
2017-08-28T18:26:48.198Z,64.70
2017-08-28T18:29:14.520Z,65.20
2017-08-28T18:31:40.815Z,66.00
2017-08-28T18:34:07.135Z,66.10
2017-08-28T18:36:33.418Z,66.30
2017-08-28T18:38:59.725Z,67.00
2017-08-28T18:41:26.002Z,67.80
2017-08-28T18:43:52.545Z,67.90
2017-08-28T18:46:19.077Z,68.50
2017-08-28T18:48:45.348Z,68.70
2017-08-28T18:51:11.666Z,69.10
2017-08-28T18:53:37.954Z,69.60
2017-08-28T18:56:04.248Z,70.30
2017-08-28T18:58:30.547Z,70.50
2017-08-28T19:00:56.876Z,70.60
2017-08-28T19:03:23.153Z,71.40
2017-08-28T19:05:49.477Z,71.90
2017-08-28T19:08:15.774Z,72.00
2017-08-28T19:10:42.172Z,72.70
2017-08-28T19:13:08.513Z,73.10
2017-08-28T19:15:34.871Z,73.10
2017-08-28T19:18:01.205Z,73.20
2017-08-28T19:20:27.593Z,72.90
2017-08-28T19:22:53.966Z,73.20
2017-08-28T19:25:20.283Z,73.40
2017-08-28T19:27:46.619Z,74.10
2017-08-28T19:30:12.932Z,74.10
2017-08-28T19:32:39.302Z,74.20
2017-08-28T19:35:07.372Z,74.30
2017-08-28T19:37:33.681Z,73.80
2017-08-28T19:40:01.010Z,73.80
2017-08-28T19:42:27.364Z,73.70
2017-08-28T19:44:53.783Z,74.10
2017-08-28T19:47:20.440Z,74.40
2017-08-28T19:49:46.790Z,74.90
2017-08-28T19:52:13.091Z,75.00
2017-08-28T19:54:39.482Z,74.70
2017-08-28T19:57:05.789Z,74.70
2017-08-28T19:59:32.085Z,74.70
2017-08-28T20:01:58.419Z,74.60
2017-08-28T20:04:24.779Z,74.60
2017-08-28T20:06:51.089Z,74.80
2017-08-28T20:09:17.908Z,75.20
2017-08-28T20:11:44.224Z,75.20
2017-08-28T20:14:10.507Z,75.30
2017-08-28T20:16:36.837Z,75.40
2017-08-28T20:19:03.117Z,75.50
2017-08-28T20:21:29.426Z,75.70
2017-08-28T20:23:55.708Z,76.00
2017-08-28T20:26:21.998Z,76.10
2017-08-28T20:28:48.284Z,75.80
2017-08-28T20:31:14.564Z,75.70
2017-08-28T20:33:40.859Z,75.60
2017-08-28T20:36:07.173Z,75.60
2017-08-28T20:38:33.472Z,75.80
2017-08-28T20:40:59.749Z,76.20
2017-08-28T20:43:26.135Z,76.40
2017-08-28T20:45:52.448Z,76.90
2017-08-28T20:48:18.736Z,76.60
2017-08-28T20:50:45.018Z,76.80
2017-08-28T20:53:11.658Z,77.20
2017-08-28T20:55:37.974Z,76.90
2017-08-28T20:58:04.293Z,76.70
2017-08-28T21:00:30.597Z,76.70
2017-08-28T21:02:56.914Z,76.90
2017-08-28T21:05:23.267Z,76.80
2017-08-28T21:07:49.541Z,77.00
2017-08-28T21:10:15.847Z,76.90
2017-08-28T21:12:42.141Z,76.90
2017-08-28T21:15:08.400Z,77.30
2017-08-28T21:17:34.726Z,77.00
2017-08-28T21:20:00.998Z,76.90
2017-08-28T21:22:27.302Z,77.40
2017-08-28T21:24:53.633Z,77.00
2017-08-28T21:27:21.373Z,77.40
2017-08-28T21:29:47.674Z,77.00
2017-08-28T21:32:13.937Z,77.20
2017-08-28T21:34:40.231Z,77.50
2017-08-28T21:37:06.520Z,78.10
2017-08-28T21:39:32.793Z,78.30
2017-08-28T21:41:59.107Z,78.10
2017-08-28T21:44:25.416Z,78.00
2017-08-28T21:46:51.685Z,78.30
2017-08-28T21:49:17.998Z,78.60
2017-08-28T21:51:46.611Z,78.60
2017-08-28T21:54:12.890Z,78.00
2017-08-28T21:56:39.193Z,78.40
2017-08-28T21:59:05.491Z,78.50
2017-08-28T22:01:31.782Z,78.20
2017-08-28T22:03:59.386Z,78.60
2017-08-28T22:06:25.705Z,78.80
2017-08-28T22:08:51.974Z,79.10
2017-08-28T22:11:18.518Z,78.80
2017-08-28T22:13:44.794Z,78.70
2017-08-28T22:16:11.071Z,78.60
2017-08-28T22:18:37.349Z,78.20
2017-08-28T22:21:04.197Z,78.30
2017-08-28T22:23:30.501Z,78.20
2017-08-28T22:25:56.770Z,79.00
2017-08-28T22:28:23.044Z,78.70
2017-08-28T22:30:49.345Z,78.90
2017-08-28T22:33:15.634Z,79.00
2017-08-28T22:35:41.950Z,79.20
2017-08-28T22:38:08.233Z,79.90
2017-08-28T22:40:34.513Z,80.10
2017-08-28T22:43:00.773Z,79.20
2017-08-28T22:45:27.069Z,79.00
2017-08-28T22:47:53.329Z,78.90
2017-08-28T22:50:20.202Z,78.50
2017-08-28T22:52:46.480Z,78.40
2017-08-28T22:55:12.754Z,78.30
2017-08-28T22:57:39.025Z,78.40
2017-08-28T23:00:05.339Z,78.30
2017-08-28T23:02:31.635Z,78.20
2017-08-28T23:04:57.940Z,79.00
2017-08-28T23:07:24.241Z,78.80
2017-08-28T23:09:50.526Z,78.50
2017-08-28T23:12:16.838Z,78.30
2017-08-28T23:14:43.136Z,78.80
2017-08-28T23:17:09.429Z,78.60
2017-08-28T23:19:35.695Z,79.10
2017-08-28T23:22:01.998Z,79.40
2017-08-28T23:24:28.313Z,79.30
2017-08-28T23:26:54.697Z,79.20
2017-08-28T23:29:21.008Z,79.20
2017-08-28T23:31:47.308Z,78.90
2017-08-28T23:34:13.598Z,78.40
2017-08-28T23:36:39.883Z,78.60
2017-08-28T23:39:06.214Z,78.80
2017-08-28T23:41:32.511Z,78.90
2017-08-28T23:43:58.847Z,79.10
2017-08-28T23:46:25.159Z,79.00
2017-08-28T23:48:51.438Z,79.20
2017-08-28T23:51:17.724Z,79.20
2017-08-28T23:53:44.006Z,79.90
2017-08-28T23:56:10.311Z,80.00
2017-08-28T23:58:36.556Z,79.70
